sensor_id;sensor_type;location;lat;lon;timestamp;pressure;altitude;pressure_sealevel;temperature;humidity
66801;BME280;53703;50.326;19.122;2024-03-07T00:02:00;99210.60;;;19.25;47.97
66801;BME280;53703;50.326;19.122;2024-03-07T00:04:35;99207.16;;;19.18;48.41
66801;BME280;53703;50.326;19.122;2024-03-07T00:07:08;99213.50;;;19.20;48.30
66801;BME280;53703;50.326;19.122;2024-03-07T00:09:41;99215.30;;;19.15;48.37
66801;BME280;53703;50.326;19.122;2024-03-07T00:12:15;99215.12;;;19.14;48.27
66801;BME280;53703;50.326;19.122;2024-03-07T00:14:48;99213.67;;;19.21;48.00
66801;BME280;53703;50.326;19.122;2024-03-07T00:17:22;99215.41;;;19.20;47.94
66801;BME280;53703;50.326;19.122;2024-03-07T00:19:55;99213.96;;;19.29;47.80
66801;BME280;53703;50.326;19.122;2024-03-07T00:22:29;99214.67;;;19.29;47.71
66801;BME280;53703;50.326;19.122;2024-03-07T00:25:03;99216.20;;;19.28;47.80
66801;BME280;53703;50.326;19.122;2024-03-07T00:27:37;99213.13;;;19.28;47.83
66801;BME280;53703;50.326;19.122;2024-03-07T00:30:12;99208.49;;;19.24;47.60
66801;BME280;53703;50.326;19.122;2024-03-07T00:32:50;99209.52;;;19.31;47.65
66801;BME280;53703;50.326;19.122;2024-03-07T00:35:25;99207.63;;;19.24;47.70
66801;BME280;53703;50.326;19.122;2024-03-07T00:37:58;99204.52;;;19.24;47.81
66801;BME280;53703;50.326;19.122;2024-03-07T00:40:32;99202.55;;;19.24;47.78
66801;BME280;53703;50.326;19.122;2024-03-07T00:43:06;99206.11;;;19.24;47.66
66801;BME280;53703;50.326;19.122;2024-03-07T00:45:39;99205.13;;;19.25;47.58
66801;BME280;53703;50.326;19.122;2024-03-07T00:48:13;99204.83;;;19.28;47.49
66801;BME280;53703;50.326;19.122;2024-03-07T00:50:46;99201.42;;;19.28;47.49
66801;BME280;53703;50.326;19.122;2024-03-07T00:53:20;99205.50;;;19.27;47.65
66801;BME280;53703;50.326;19.122;2024-03-07T00:55:53;99205.34;;;19.24;47.67
66801;BME280;53703;50.326;19.122;2024-03-07T00:58:26;99204.58;;;19.32;47.44
66801;BME280;53703;50.326;19.122;2024-03-07T01:01:00;99202.55;;;19.26;47.40
66801;BME280;53703;50.326;19.122;2024-03-07T01:03:34;99204.76;;;19.31;47.44
66801;BME280;53703;50.326;19.122;2024-03-07T01:06:08;99203.70;;;19.35;47.41
66801;BME280;53703;50.326;19.122;2024-03-07T01:08:42;99205.02;;;19.34;47.30
66801;BME280;53703;50.326;19.122;2024-03-07T01:11:15;99204.28;;;19.35;47.24
66801;BME280;53703;50.326;19.122;2024-03-07T01:13:49;99201.64;;;19.32;47.28
66801;BME280;53703;50.326;19.122;2024-03-07T01:16:22;99201.00;;;19.32;47.21
66801;BME280;53703;50.326;19.122;2024-03-07T01:18:56;99199.64;;;19.29;47.30
66801;BME280;53703;50.326;19.122;2024-03-07T01:21:30;99201.08;;;19.36;47.06
66801;BME280;53703;50.326;19.122;2024-03-07T01:24:07;99197.32;;;19.33;47.30
66801;BME280;53703;50.326;19.122;2024-03-07T01:26:41;99193.95;;;19.31;47.17
66801;BME280;53703;50.326;19.122;2024-03-07T01:29:14;99194.59;;;19.27;47.30
66801;BME280;53703;50.326;19.122;2024-03-07T01:31:48;99195.72;;;19.25;47.36
66801;BME280;53703;50.326;19.122;2024-03-07T01:34:21;99192.54;;;19.29;47.12
66801;BME280;53703;50.326;19.122;2024-03-07T01:36:55;99189.08;;;19.32;46.92
66801;BME280;53703;50.326;19.122;2024-03-07T01:39:28;99190.33;;;19.29;46.83
66801;BME280;53703;50.326;19.122;2024-03-07T01:42:02;99189.48;;;19.32;46.68
66801;BME280;53703;50.326;19.122;2024-03-07T01:44:35;99191.89;;;19.29;46.79
66801;BME280;53703;50.326;19.122;2024-03-07T01:47:09;99193.51;;;19.28;46.83
66801;BME280;53703;50.326;19.122;2024-03-07T01:49:43;99190.64;;;19.25;46.62
66801;BME280;53703;50.326;19.122;2024-03-07T01:52:16;99193.22;;;19.29;46.51
66801;BME280;53703;50.326;19.122;2024-03-07T01:54:50;99191.42;;;19.25;46.66
66801;BME280;53703;50.326;19.122;2024-03-07T01:57:24;99191.77;;;19.23;46.65
66801;BME280;53703;50.326;19.122;2024-03-07T01:59:58;99189.44;;;19.24;46.62
66801;BME280;53703;50.326;19.122;2024-03-07T02:02:32;99188.09;;;19.29;46.51
66801;BME280;53703;50.326;19.122;2024-03-07T02:05:07;99181.86;;;19.24;46.56
66801;BME280;53703;50.326;19.122;2024-03-07T02:07:41;99179.05;;;19.23;46.71
66801;BME280;53703;50.326;19.122;2024-03-07T02:10:16;99178.70;;;19.25;46.55
66801;BME280;53703;50.326;19.122;2024-03-07T02:12:50;99180.27;;;19.27;46.49
66801;BME280;53703;50.326;19.122;2024-03-07T02:15:23;99175.95;;;19.30;46.37
66801;BME280;53703;50.326;19.122;2024-03-07T02:17:57;99176.70;;;19.29;46.49
66801;BME280;53703;50.326;19.122;2024-03-07T02:20:30;99173.27;;;19.30;46.56
66801;BME280;53703;50.326;19.122;2024-03-07T02:23:04;99174.41;;;19.29;46.30
66801;BME280;53703;50.326;19.122;2024-03-07T02:25:37;99173.44;;;19.26;46.65
66801;BME280;53703;50.326;19.122;2024-03-07T02:28:11;99172.78;;;19.27;46.61
66801;BME280;53703;50.326;19.122;2024-03-07T02:30:44;99172.20;;;19.26;46.46
66801;BME280;53703;50.326;19.122;2024-03-07T02:33:18;99172.13;;;19.29;46.41
66801;BME280;53703;50.326;19.122;2024-03-07T02:35:52;99172.25;;;19.25;46.46
66801;BME280;53703;50.326;19.122;2024-03-07T02:38:25;99173.13;;;19.25;46.32
66801;BME280;53703;50.326;19.122;2024-03-07T02:41:00;99173.52;;;19.28;46.28
66801;BME280;53703;50.326;19.122;2024-03-07T02:43:34;99175.32;;;19.27;46.28
66801;BME280;53703;50.326;19.122;2024-03-07T02:46:10;99169.98;;;19.26;46.34
66801;BME280;53703;50.326;19.122;2024-03-07T02:48:44;99171.80;;;19.22;46.33
66801;BME280;53703;50.326;19.122;2024-03-07T02:51:17;99173.98;;;19.20;46.42
66801;BME280;53703;50.326;19.122;2024-03-07T02:53:50;99174.32;;;19.19;46.32
66801;BME280;53703;50.326;19.122;2024-03-07T02:56:24;99170.80;;;19.19;46.28
66801;BME280;53703;50.326;19.122;2024-03-07T02:58:58;99174.69;;;19.18;46.25
66801;BME280;53703;50.326;19.122;2024-03-07T03:01:35;99173.40;;;19.20;46.07
66801;BME280;53703;50.326;19.122;2024-03-07T03:04:08;99170.48;;;19.18;46.18
66801;BME280;53703;50.326;19.122;2024-03-07T03:06:42;99175.04;;;19.16;46.26
66801;BME280;53703;50.326;19.122;2024-03-07T03:09:15;99179.13;;;19.21;46.04
66801;BME280;53703;50.326;19.122;2024-03-07T03:11:50;99176.46;;;19.19;46.22
66801;BME280;53703;50.326;19.122;2024-03-07T03:14:24;99176.76;;;19.16;46.11
66801;BME280;53703;50.326;19.122;2024-03-07T03:16:57;99176.98;;;19.13;46.28
66801;BME280;53703;50.326;19.122;2024-03-07T03:19:31;99177.02;;;19.17;46.11
66801;BME280;53703;50.326;19.122;2024-03-07T03:22:05;99179.63;;;19.19;46.03
66801;BME280;53703;50.326;19.122;2024-03-07T03:24:40;99178.53;;;19.20;46.02
66801;BME280;53703;50.326;19.122;2024-03-07T03:27:14;99181.10;;;19.20;45.99
66801;BME280;53703;50.326;19.122;2024-03-07T03:29:47;99179.41;;;19.22;46.16
66801;BME280;53703;50.326;19.122;2024-03-07T03:32:23;99177.49;;;19.22;46.20
66801;BME280;53703;50.326;19.122;2024-03-07T03:34:56;99182.48;;;19.17;46.23
66801;BME280;53703;50.326;19.122;2024-03-07T03:37:30;99182.32;;;19.17;46.13
66801;BME280;53703;50.326;19.122;2024-03-07T03:40:04;99183.15;;;19.20;45.86
66801;BME280;53703;50.326;19.122;2024-03-07T03:42:38;99179.95;;;19.19;46.14
66801;BME280;53703;50.326;19.122;2024-03-07T03:45:13;99183.61;;;19.20;46.07
66801;BME280;53703;50.326;19.122;2024-03-07T03:47:47;99180.48;;;19.18;46.10
66801;BME280;53703;50.326;19.122;2024-03-07T03:50:21;99182.48;;;19.22;45.93
66801;BME280;53703;50.326;19.122;2024-03-07T03:52:56;99183.88;;;19.16;46.09
66801;BME280;53703;50.326;19.122;2024-03-07T03:55:30;99188.29;;;19.18;45.95
66801;BME280;53703;50.326;19.122;2024-03-07T03:58:04;99191.41;;;19.19;45.93
66801;BME280;53703;50.326;19.122;2024-03-07T04:00:39;99191.88;;;19.14;46.06
66801;BME280;53703;50.326;19.122;2024-03-07T04:03:12;99192.05;;;19.17;46.01
66801;BME280;53703;50.326;19.122;2024-03-07T04:05:46;99189.23;;;19.18;45.97
66801;BME280;53703;50.326;19.122;2024-03-07T04:08:19;99192.81;;;19.11;46.13
66801;BME280;53703;50.326;19.122;2024-03-07T04:10:53;99194.75;;;19.20;45.88
66801;BME280;53703;50.326;19.122;2024-03-07T04:13:26;99192.48;;;19.16;45.89
66801;BME280;53703;50.326;19.122;2024-03-07T04:16:00;99191.90;;;19.15;45.83
66801;BME280;53703;50.326;19.122;2024-03-07T04:18:33;99194.55;;;19.11;46.11
66801;BME280;53703;50.326;19.122;2024-03-07T04:21:07;99196.44;;;19.08;45.86
66801;BME280;53703;50.326;19.122;2024-03-07T04:23:43;99195.54;;;19.07;45.97
66801;BME280;53703;50.326;19.122;2024-03-07T04:26:18;99196.53;;;19.09;46.12
66801;BME280;53703;50.326;19.122;2024-03-07T04:28:52;99200.48;;;19.07;46.10
66801;BME280;53703;50.326;19.122;2024-03-07T04:31:25;99205.79;;;19.14;45.76
66801;BME280;53703;50.326;19.122;2024-03-07T04:33:59;99204.85;;;19.07;45.92
66801;BME280;53703;50.326;19.122;2024-03-07T04:36:32;99204.29;;;19.05;45.90
66801;BME280;53703;50.326;19.122;2024-03-07T04:39:07;99206.20;;;19.01;46.14
66801;BME280;53703;50.326;19.122;2024-03-07T04:41:56;99205.83;;;19.02;45.96
66801;BME280;53703;50.326;19.122;2024-03-07T04:44:31;99204.96;;;19.01;46.04
66801;BME280;53703;50.326;19.122;2024-03-07T04:47:08;99202.52;;;19.04;45.73
66801;BME280;53703;50.326;19.122;2024-03-07T04:49:42;99206.41;;;19.03;46.02
66801;BME280;53703;50.326;19.122;2024-03-07T04:52:16;99204.16;;;19.03;45.93
66801;BME280;53703;50.326;19.122;2024-03-07T04:54:49;99202.23;;;19.05;45.94
66801;BME280;53703;50.326;19.122;2024-03-07T04:57:22;99203.31;;;19.02;46.01
66801;BME280;53703;50.326;19.122;2024-03-07T04:59:56;99204.52;;;19.07;45.79
66801;BME280;53703;50.326;19.122;2024-03-07T05:02:30;99205.91;;;19.06;45.83
66801;BME280;53703;50.326;19.122;2024-03-07T05:05:04;99207.28;;;19.07;45.72
66801;BME280;53703;50.326;19.122;2024-03-07T05:07:37;99213.21;;;19.03;45.99
66801;BME280;53703;50.326;19.122;2024-03-07T05:10:12;99211.98;;;19.03;45.95
66801;BME280;53703;50.326;19.122;2024-03-07T05:12:46;99214.88;;;19.04;45.84
66801;BME280;53703;50.326;19.122;2024-03-07T05:15:20;99215.73;;;19.02;45.74
66801;BME280;53703;50.326;19.122;2024-03-07T05:17:58;99213.83;;;19.04;45.82
66801;BME280;53703;50.326;19.122;2024-03-07T05:20:31;99217.98;;;19.01;45.94
66801;BME280;53703;50.326;19.122;2024-03-07T05:23:05;99217.50;;;19.01;45.80
66801;BME280;53703;50.326;19.122;2024-03-07T05:25:38;99221.80;;;19.00;46.03
66801;BME280;53703;50.326;19.122;2024-03-07T05:28:12;99220.64;;;18.98;45.82
66801;BME280;53703;50.326;19.122;2024-03-07T05:30:45;99225.38;;;19.00;45.82
66801;BME280;53703;50.326;19.122;2024-03-07T05:33:20;99227.15;;;19.01;45.74
66801;BME280;53703;50.326;19.122;2024-03-07T05:35:54;99233.69;;;19.02;45.84
66801;BME280;53703;50.326;19.122;2024-03-07T05:38:45;99236.06;;;18.98;45.86
66801;BME280;53703;50.326;19.122;2024-03-07T05:41:19;99236.51;;;19.00;45.89
66801;BME280;53703;50.326;19.122;2024-03-07T05:43:52;99237.81;;;18.99;45.83
66801;BME280;53703;50.326;19.122;2024-03-07T05:46:26;99236.70;;;18.99;45.69
66801;BME280;53703;50.326;19.122;2024-03-07T05:48:59;99241.66;;;18.96;45.64
66801;BME280;53703;50.326;19.122;2024-03-07T05:51:34;99240.63;;;18.88;46.02
66801;BME280;53703;50.326;19.122;2024-03-07T05:54:07;99241.20;;;18.87;45.99
66801;BME280;53703;50.326;19.122;2024-03-07T05:56:41;99242.41;;;18.88;45.98
66801;BME280;53703;50.326;19.122;2024-03-07T05:59:15;99244.96;;;18.91;45.82
66801;BME280;53703;50.326;19.122;2024-03-07T06:01:49;99242.84;;;18.89;45.83
66801;BME280;53703;50.326;19.122;2024-03-07T06:04:24;99245.02;;;18.88;45.72
66801;BME280;53703;50.326;19.122;2024-03-07T06:06:57;99249.48;;;18.87;45.89
66801;BME280;53703;50.326;19.122;2024-03-07T06:09:32;99247.98;;;18.84;45.71
66801;BME280;53703;50.326;19.122;2024-03-07T06:12:06;99247.39;;;18.85;45.92
66801;BME280;53703;50.326;19.122;2024-03-07T06:14:54;99244.52;;;18.85;45.63
66801;BME280;53703;50.326;19.122;2024-03-07T06:17:27;99248.13;;;18.86;45.72
66801;BME280;53703;50.326;19.122;2024-03-07T06:20:01;99250.16;;;18.88;45.56
66801;BME280;53703;50.326;19.122;2024-03-07T06:22:35;99252.17;;;18.89;45.38
66801;BME280;53703;50.326;19.122;2024-03-07T06:25:09;99252.92;;;18.92;45.38
66801;BME280;53703;50.326;19.122;2024-03-07T06:27:51;99253.30;;;18.87;45.52
66801;BME280;53703;50.326;19.122;2024-03-07T06:30:24;99251.98;;;18.92;45.31
66801;BME280;53703;50.326;19.122;2024-03-07T06:32:58;99256.27;;;18.89;45.39
66801;BME280;53703;50.326;19.122;2024-03-07T06:35:32;99251.16;;;18.89;45.48
66801;BME280;53703;50.326;19.122;2024-03-07T06:38:09;99250.96;;;18.86;45.55
66801;BME280;53703;50.326;19.122;2024-03-07T06:40:43;99252.08;;;18.89;45.45
66801;BME280;53703;50.326;19.122;2024-03-07T06:43:17;99249.08;;;18.86;45.60
66801;BME280;53703;50.326;19.122;2024-03-07T06:45:50;99256.39;;;18.83;45.56
66801;BME280;53703;50.326;19.122;2024-03-07T06:48:24;99258.42;;;18.87;45.48
66801;BME280;53703;50.326;19.122;2024-03-07T06:50:58;99259.89;;;18.86;45.47
66801;BME280;53703;50.326;19.122;2024-03-07T06:53:31;99259.36;;;18.82;45.69
66801;BME280;53703;50.326;19.122;2024-03-07T06:56:06;99259.88;;;18.83;45.54
66801;BME280;53703;50.326;19.122;2024-03-07T06:58:40;99264.36;;;18.83;45.46
66801;BME280;53703;50.326;19.122;2024-03-07T07:01:14;99263.50;;;18.78;45.63
66801;BME280;53703;50.326;19.122;2024-03-07T07:03:48;99260.46;;;18.79;45.48
66801;BME280;53703;50.326;19.122;2024-03-07T07:06:22;99256.13;;;18.80;45.59
66801;BME280;53703;50.326;19.122;2024-03-07T07:08:55;99255.09;;;18.82;45.58
66801;BME280;53703;50.326;19.122;2024-03-07T07:11:31;99257.98;;;18.77;45.52
66801;BME280;53703;50.326;19.122;2024-03-07T07:14:06;99260.40;;;18.76;45.42
66801;BME280;53703;50.326;19.122;2024-03-07T07:16:40;99261.86;;;18.75;45.54
66801;BME280;53703;50.326;19.122;2024-03-07T07:19:17;99264.21;;;18.74;45.63
66801;BME280;53703;50.326;19.122;2024-03-07T07:21:51;99262.60;;;18.73;45.40
66801;BME280;53703;50.326;19.122;2024-03-07T07:24:26;99260.46;;;18.75;45.59
66801;BME280;53703;50.326;19.122;2024-03-07T07:27:01;99263.29;;;18.73;45.37
66801;BME280;53703;50.326;19.122;2024-03-07T07:29:34;99252.77;;;18.74;45.24
66801;BME280;53703;50.326;19.122;2024-03-07T07:32:09;99257.30;;;18.69;45.52
66801;BME280;53703;50.326;19.122;2024-03-07T07:34:44;99255.42;;;18.71;45.31
66801;BME280;53703;50.326;19.122;2024-03-07T07:37:21;99258.79;;;18.66;45.53
66801;BME280;53703;50.326;19.122;2024-03-07T07:39:55;99264.58;;;18.67;45.54
66801;BME280;53703;50.326;19.122;2024-03-07T07:42:28;99265.58;;;18.68;45.54
66801;BME280;53703;50.326;19.122;2024-03-07T07:45:01;99262.78;;;18.67;45.28
66801;BME280;53703;50.326;19.122;2024-03-07T07:47:37;99262.80;;;18.66;45.57
66801;BME280;53703;50.326;19.122;2024-03-07T07:50:15;99266.93;;;18.69;45.21
66801;BME280;53703;50.326;19.122;2024-03-07T07:52:51;99271.91;;;18.65;45.44
66801;BME280;53703;50.326;19.122;2024-03-07T07:55:27;99271.73;;;18.66;45.28
66801;BME280;53703;50.326;19.122;2024-03-07T07:58:02;99271.06;;;18.65;45.34
66801;BME280;53703;50.326;19.122;2024-03-07T08:00:36;99268.95;;;18.70;45.25
66801;BME280;53703;50.326;19.122;2024-03-07T08:03:09;99270.05;;;18.67;45.48
66801;BME280;53703;50.326;19.122;2024-03-07T08:05:43;99269.99;;;18.68;45.45
66801;BME280;53703;50.326;19.122;2024-03-07T08:08:17;99269.73;;;18.65;45.34
66801;BME280;53703;50.326;19.122;2024-03-07T08:10:53;99272.52;;;18.66;45.34
66801;BME280;53703;50.326;19.122;2024-03-07T08:13:26;99271.90;;;18.66;45.43
66801;BME280;53703;50.326;19.122;2024-03-07T08:15:59;99274.52;;;18.71;45.65
66801;BME280;53703;50.326;19.122;2024-03-07T08:18:33;99273.98;;;18.69;45.32
66801;BME280;53703;50.326;19.122;2024-03-07T08:21:07;99274.38;;;18.65;45.64
66801;BME280;53703;50.326;19.122;2024-03-07T08:23:43;99276.66;;;18.64;45.36
66801;BME280;53703;50.326;19.122;2024-03-07T08:26:16;99274.10;;;18.64;45.24
66801;BME280;53703;50.326;19.122;2024-03-07T08:28:50;99277.78;;;18.65;45.28
66801;BME280;53703;50.326;19.122;2024-03-07T08:31:23;99275.11;;;18.67;45.35
66801;BME280;53703;50.326;19.122;2024-03-07T08:33:58;99276.02;;;18.67;45.40
66801;BME280;53703;50.326;19.122;2024-03-07T08:36:32;99277.84;;;18.64;45.28
66801;BME280;53703;50.326;19.122;2024-03-07T08:39:05;99276.38;;;18.68;45.37
66801;BME280;53703;50.326;19.122;2024-03-07T08:41:43;99282.52;;;18.60;45.31
66801;BME280;53703;50.326;19.122;2024-03-07T08:44:18;99281.25;;;18.58;45.21
66801;BME280;53703;50.326;19.122;2024-03-07T08:46:52;99281.77;;;18.57;45.06
66801;BME280;53703;50.326;19.122;2024-03-07T08:49:25;99283.40;;;18.59;45.01
66801;BME280;53703;50.326;19.122;2024-03-07T08:51:58;99283.81;;;18.57;45.02
66801;BME280;53703;50.326;19.122;2024-03-07T08:54:33;99282.41;;;18.55;44.99
66801;BME280;53703;50.326;19.122;2024-03-07T08:57:07;99286.22;;;18.53;45.03
66801;BME280;53703;50.326;19.122;2024-03-07T08:59:40;99284.11;;;18.52;45.04
66801;BME280;53703;50.326;19.122;2024-03-07T09:02:14;99288.90;;;18.51;45.02
66801;BME280;53703;50.326;19.122;2024-03-07T09:04:47;99286.08;;;18.54;45.02
66801;BME280;53703;50.326;19.122;2024-03-07T09:07:20;99287.28;;;18.50;45.07
66801;BME280;53703;50.326;19.122;2024-03-07T09:09:54;99285.69;;;18.50;45.04
66801;BME280;53703;50.326;19.122;2024-03-07T09:12:27;99289.30;;;18.45;45.11
66801;BME280;53703;50.326;19.122;2024-03-07T09:15:01;99291.70;;;18.50;45.32
66801;BME280;53703;50.326;19.122;2024-03-07T09:17:34;99293.77;;;18.58;45.42
66801;BME280;53703;50.326;19.122;2024-03-07T09:20:11;99291.63;;;18.33;45.12
66801;BME280;53703;50.326;19.122;2024-03-07T09:22:48;99298.66;;;18.50;45.53
66801;BME280;53703;50.326;19.122;2024-03-07T09:25:22;99301.94;;;18.37;44.72
66801;BME280;53703;50.326;19.122;2024-03-07T09:27:56;99303.16;;;18.57;45.45
66801;BME280;53703;50.326;19.122;2024-03-07T09:30:30;99299.88;;;18.58;45.76
66801;BME280;53703;50.326;19.122;2024-03-07T09:33:04;99304.30;;;18.62;46.66
66801;BME280;53703;50.326;19.122;2024-03-07T09:35:37;99310.02;;;18.63;45.90
66801;BME280;53703;50.326;19.122;2024-03-07T09:38:11;99309.27;;;18.64;47.66
66801;BME280;53703;50.326;19.122;2024-03-07T09:40:44;99310.27;;;18.68;47.23
66801;BME280;53703;50.326;19.122;2024-03-07T09:43:19;99310.91;;;18.64;47.57
66801;BME280;53703;50.326;19.122;2024-03-07T09:45:54;99312.09;;;18.68;47.49
66801;BME280;53703;50.326;19.122;2024-03-07T09:48:29;99314.75;;;18.61;47.78
66801;BME280;53703;50.326;19.122;2024-03-07T09:51:03;99318.10;;;18.68;47.22
66801;BME280;53703;50.326;19.122;2024-03-07T09:53:38;99316.85;;;18.62;47.50
66801;BME280;53703;50.326;19.122;2024-03-07T09:56:13;99322.30;;;18.55;47.54
66801;BME280;53703;50.326;19.122;2024-03-07T09:58:50;99323.23;;;18.51;47.32
66801;BME280;53703;50.326;19.122;2024-03-07T10:01:27;99323.20;;;18.52;47.08
66801;BME280;53703;50.326;19.122;2024-03-07T10:04:02;99332.45;;;18.48;47.06
66801;BME280;53703;50.326;19.122;2024-03-07T10:06:44;99331.14;;;18.45;47.23
66801;BME280;53703;50.326;19.122;2024-03-07T10:09:18;99330.66;;;18.45;47.01
66801;BME280;53703;50.326;19.122;2024-03-07T10:12:00;99330.71;;;18.56;46.78
66801;BME280;53703;50.326;19.122;2024-03-07T10:14:36;99331.92;;;18.51;47.31
66801;BME280;53703;50.326;19.122;2024-03-07T10:17:11;99330.60;;;18.53;47.83
66801;BME280;53703;50.326;19.122;2024-03-07T10:19:49;99328.43;;;18.61;46.66
66801;BME280;53703;50.326;19.122;2024-03-07T10:22:25;99327.02;;;18.65;46.79
66801;BME280;53703;50.326;19.122;2024-03-07T10:24:59;99327.11;;;18.60;48.28
66801;BME280;53703;50.326;19.122;2024-03-07T10:27:35;99323.34;;;18.56;49.61
66801;BME280;53703;50.326;19.122;2024-03-07T10:30:11;99324.25;;;18.63;47.65
66801;BME280;53703;50.326;19.122;2024-03-07T10:32:56;99322.80;;;18.58;48.20
66801;BME280;53703;50.326;19.122;2024-03-07T10:35:32;99327.02;;;18.55;48.10
66801;BME280;53703;50.326;19.122;2024-03-07T10:38:06;99328.34;;;18.61;47.36
66801;BME280;53703;50.326;19.122;2024-03-07T10:40:41;99324.88;;;18.59;47.44
66801;BME280;53703;50.326;19.122;2024-03-07T10:43:15;99327.54;;;18.60;47.25
66801;BME280;53703;50.326;19.122;2024-03-07T10:45:52;99329.92;;;18.63;47.02
66801;BME280;53703;50.326;19.122;2024-03-07T10:48:31;99328.87;;;18.58;47.09
66801;BME280;53703;50.326;19.122;2024-03-07T10:51:21;99331.38;;;18.59;47.03
66801;BME280;53703;50.326;19.122;2024-03-07T10:54:04;99329.97;;;18.56;46.88
66801;BME280;53703;50.326;19.122;2024-03-07T10:56:55;99333.88;;;18.59;46.71
66801;BME280;53703;50.326;19.122;2024-03-07T10:59:37;99331.00;;;18.67;46.47
66801;BME280;53703;50.326;19.122;2024-03-07T11:02:18;99331.41;;;18.63;46.64
66801;BME280;53703;50.326;19.122;2024-03-07T11:04:54;99330.49;;;18.55;46.61
66801;BME280;53703;50.326;19.122;2024-03-07T11:07:29;99328.75;;;18.59;46.45
66801;BME280;53703;50.326;19.122;2024-03-07T11:10:03;99334.71;;;18.52;46.46
66801;BME280;53703;50.326;19.122;2024-03-07T11:12:44;99326.80;;;18.53;46.33
66801;BME280;53703;50.326;19.122;2024-03-07T11:15:19;99326.98;;;18.47;46.31
66801;BME280;53703;50.326;19.122;2024-03-07T11:17:55;99325.48;;;18.50;46.47
66801;BME280;53703;50.326;19.122;2024-03-07T11:20:36;99325.83;;;18.48;46.28
66801;BME280;53703;50.326;19.122;2024-03-07T11:23:29;99322.62;;;18.51;46.63
66801;BME280;53703;50.326;19.122;2024-03-07T11:26:07;99324.02;;;18.48;47.06
66801;BME280;53703;50.326;19.122;2024-03-07T11:28:43;99323.05;;;18.54;47.24
66801;BME280;53703;50.326;19.122;2024-03-07T11:31:28;99322.65;;;18.56;47.68
66801;BME280;53703;50.326;19.122;2024-03-07T11:34:18;99326.15;;;18.59;47.96
66801;BME280;53703;50.326;19.122;2024-03-07T11:36:51;99326.42;;;18.46;48.14
66801;BME280;53703;50.326;19.122;2024-03-07T11:39:44;99326.98;;;18.52;49.12
66801;BME280;53703;50.326;19.122;2024-03-07T11:42:27;99326.34;;;18.62;48.70
66801;BME280;53703;50.326;19.122;2024-03-07T11:45:04;99323.13;;;18.85;48.25
66801;BME280;53703;50.326;19.122;2024-03-07T11:47:40;99323.23;;;18.87;47.99
66801;BME280;53703;50.326;19.122;2024-03-07T11:50:13;99324.50;;;18.92;47.38
66801;BME280;53703;50.326;19.122;2024-03-07T11:52:52;99319.42;;;18.91;47.46
66801;BME280;53703;50.326;19.122;2024-03-07T11:55:26;99318.27;;;19.01;46.73
66801;BME280;53703;50.326;19.122;2024-03-07T11:58:01;99319.23;;;19.05;45.88
66801;BME280;53703;50.326;19.122;2024-03-07T12:00:36;99320.33;;;18.97;45.47
66801;BME280;53703;50.326;19.122;2024-03-07T12:03:15;99319.04;;;18.92;45.10
66801;BME280;53703;50.326;19.122;2024-03-07T12:05:50;99318.94;;;19.00;45.79
66801;BME280;53703;50.326;19.122;2024-03-07T12:08:25;99318.61;;;18.95;46.95
66801;BME280;53703;50.326;19.122;2024-03-07T12:11:00;99322.98;;;18.98;47.56
66801;BME280;53703;50.326;19.122;2024-03-07T12:13:38;99316.84;;;18.94;47.20
66801;BME280;53703;50.326;19.122;2024-03-07T12:16:13;99310.67;;;19.05;45.71
66801;BME280;53703;50.326;19.122;2024-03-07T12:18:48;99310.73;;;19.09;45.52
66801;BME280;53703;50.326;19.122;2024-03-07T12:21:22;99307.30;;;18.98;45.65
66801;BME280;53703;50.326;19.122;2024-03-07T12:23:59;99310.90;;;19.16;46.47
66801;BME280;53703;50.326;19.122;2024-03-07T12:26:43;99313.05;;;19.07;46.89
66801;BME280;53703;50.326;19.122;2024-03-07T12:29:25;99317.66;;;18.91;47.87
66801;BME280;53703;50.326;19.122;2024-03-07T12:31:58;99313.58;;;18.80;49.85
66801;BME280;53703;50.326;19.122;2024-03-07T12:34:33;99314.39;;;18.78;51.93
66801;BME280;53703;50.326;19.122;2024-03-07T12:37:10;99311.48;;;18.79;52.01
66801;BME280;53703;50.326;19.122;2024-03-07T12:39:44;99312.23;;;19.00;49.00
66801;BME280;53703;50.326;19.122;2024-03-07T12:42:19;99310.20;;;18.99;49.02
66801;BME280;53703;50.326;19.122;2024-03-07T12:44:54;99312.93;;;18.87;51.02
66801;BME280;53703;50.326;19.122;2024-03-07T12:47:27;99315.94;;;18.93;50.55
66801;BME280;53703;50.326;19.122;2024-03-07T12:50:01;99314.41;;;19.01;49.81
66801;BME280;53703;50.326;19.122;2024-03-07T12:52:39;99315.97;;;18.85;47.34
66801;BME280;53703;50.326;19.122;2024-03-07T12:55:18;99318.96;;;18.90;50.16
66801;BME280;53703;50.326;19.122;2024-03-07T12:57:53;99317.66;;;18.86;50.67
66801;BME280;53703;50.326;19.122;2024-03-07T13:00:27;99315.17;;;18.88;50.19
66801;BME280;53703;50.326;19.122;2024-03-07T13:03:02;99316.25;;;18.86;50.28
66801;BME280;53703;50.326;19.122;2024-03-07T13:05:36;99317.09;;;18.95;49.70
66801;BME280;53703;50.326;19.122;2024-03-07T13:08:12;99316.36;;;18.87;49.32
66801;BME280;53703;50.326;19.122;2024-03-07T13:10:47;99317.80;;;18.88;49.59
66801;BME280;53703;50.326;19.122;2024-03-07T13:13:22;99318.23;;;18.91;49.00
66801;BME280;53703;50.326;19.122;2024-03-07T13:15:56;99316.05;;;18.99;48.91
66801;BME280;53703;50.326;19.122;2024-03-07T13:18:29;99319.99;;;18.94;49.36
66801;BME280;53703;50.326;19.122;2024-03-07T13:21:06;99316.02;;;18.97;48.48
66801;BME280;53703;50.326;19.122;2024-03-07T13:23:43;99316.45;;;19.05;48.69
66801;BME280;53703;50.326;19.122;2024-03-07T13:26:20;99316.75;;;19.00;49.16
66801;BME280;53703;50.326;19.122;2024-03-07T13:28:56;99319.95;;;19.04;48.88
66801;BME280;53703;50.326;19.122;2024-03-07T13:31:32;99318.38;;;19.06;48.77